Time;durP1;ratioP1;P1;durP2;ratioP2;P2;SDS_P1;SDS_P2;PMS_P1;PMS_P2;Temp;Humidity;BMP_temperature;BMP_pressure;BME280_temperature;BME280_humidity;BME280_pressure;Samples;Min_cycle;Max_cycle;Signal;HPM_P1;HPM_P2
2020/12/07 00:02:22;;;;;;;33.80;25.20;;;21.20;63.30;;;;;;5185951;28;20407;-79
2020/12/07 00:04:52;;;;;;;33.83;25.13;;;21.10;63.20;;;;;;5177192;28;20519;-78
2020/12/07 00:07:25;;;;;;;34.40;24.70;;;21.20;63.30;;;;;;5205645;28;20025;-78
2020/12/07 00:09:55;;;;;;;36.67;25.88;;;21.10;63.40;;;;;;5181006;28;20460;-80
2020/12/07 00:12:26;;;;;;;31.45;24.33;;;21.10;63.70;;;;;;5175750;28;20099;-79
2020/12/07 00:14:57;;;;;;;34.13;25.02;;;21.00;63.90;;;;;;5191159;28;20176;-79
2020/12/07 00:17:28;;;;;;;35.47;24.70;;;20.90;64.10;;;;;;5175368;28;20202;-78
2020/12/07 00:19:58;;;;;;;30.25;24.10;;;21.00;64.60;;;;;;5192334;28;20069;-79
2020/12/07 00:22:29;;;;;;;33.05;24.65;;;21.10;64.20;;;;;;5191157;28;20117;-78
2020/12/07 00:25:00;;;;;;;34.45;24.95;;;21.20;64.00;;;;;;5202999;28;20552;-80
2020/12/07 00:27:32;;;;;;;35.55;23.42;;;21.30;63.60;;;;;;5193855;28;20223;-78
2020/12/07 00:30:04;;;;;;;32.55;24.13;;;21.30;63.70;;;;;;5197088;28;20030;-79
2020/12/07 00:32:34;;;;;;;35.58;24.10;;;21.30;63.80;;;;;;5169271;28;21629;-77
2020/12/07 00:35:05;;;;;;;33.40;24.35;;;21.30;63.60;;;;;;5199387;28;20555;-78
2020/12/07 00:37:35;;;;;;;31.60;23.02;;;21.30;63.80;;;;;;5211053;28;20028;-78
2020/12/07 00:40:06;;;;;;;29.08;23.38;;;21.10;64.10;;;;;;5196380;28;20030;-78
2020/12/07 00:42:36;;;;;;;32.20;23.45;;;21.10;64.20;;;;;;5190128;28;20026;-79
2020/12/07 00:45:07;;;;;;;31.08;24.02;;;21.00;64.60;;;;;;5203763;28;20040;-78
2020/12/07 00:47:37;;;;;;;31.20;23.00;;;21.00;64.60;;;;;;5190341;28;20029;-78
2020/12/07 00:50:08;;;;;;;28.20;22.45;;;21.20;64.30;;;;;;5174632;28;20038;-78
2020/12/07 00:52:38;;;;;;;28.58;23.23;;;21.10;64.50;;;;;;5190018;28;20554;-78
2020/12/07 00:55:09;;;;;;;28.85;22.65;;;21.10;64.40;;;;;;5189457;28;20033;-77
2020/12/07 00:57:39;;;;;;;29.05;23.13;;;21.10;64.50;;;;;;5189676;28;20507;-78
2020/12/07 01:00:10;;;;;;;30.73;22.42;;;21.10;64.50;;;;;;5189885;28;20041;-78
2020/12/07 01:02:40;;;;;;;29.35;21.85;;;21.10;64.50;;;;;;5174287;28;20026;-78
2020/12/07 01:05:11;;;;;;;28.65;21.27;;;21.20;64.60;;;;;;5173639;28;20034;-79
2020/12/07 01:07:41;;;;;;;29.50;22.13;;;21.20;64.50;;;;;;5192173;28;20041;-79
2020/12/07 01:10:13;;;;;;;31.10;22.75;;;21.30;63.90;;;;;;5188770;28;20029;-78
2020/12/07 01:12:43;;;;;;;31.45;21.38;;;21.30;63.90;;;;;;5209533;28;20156;-80
2020/12/07 01:15:14;;;;;;;28.25;22.05;;;21.20;64.20;;;;;;5206144;28;20034;-78
2020/12/07 01:17:44;;;;;;;29.48;21.55;;;21.30;63.90;;;;;;5169798;28;20034;-79
2020/12/07 01:20:15;;;;;;;27.20;21.08;;;21.20;64.00;;;;;;5162747;28;20038;-79
2020/12/07 01:22:45;;;;;;;27.55;21.48;;;21.10;64.60;;;;;;5171102;28;20022;-78
2020/12/07 01:25:16;;;;;;;27.75;21.70;;;21.20;64.10;;;;;;5186720;28;20030;-78
2020/12/07 01:27:46;;;;;;;27.70;21.33;;;21.30;64.10;;;;;;5171367;28;20030;-78
2020/12/07 01:30:17;;;;;;;25.55;20.63;;;21.20;64.30;;;;;;5168371;28;20033;-78
2020/12/07 01:32:47;;;;;;;26.13;20.95;;;21.20;64.50;;;;;;5187356;28;20022;-78
2020/12/07 01:35:18;;;;;;;25.80;20.90;;;21.10;64.70;;;;;;5186355;28;20103;-79
2020/12/07 01:37:48;;;;;;;26.13;19.98;;;21.20;64.20;;;;;;5170538;28;20125;-78
2020/12/07 01:40:19;;;;;;;25.30;20.40;;;21.20;64.10;;;;;;5167130;28;20496;-78
2020/12/07 01:42:49;;;;;;;28.70;21.20;;;21.10;64.70;;;;;;5169100;28;20037;-79
2020/12/07 01:45:20;;;;;;;25.45;19.98;;;21.00;65.00;;;;;;5189214;28;20503;-78
2020/12/07 01:47:50;;;;;;;25.10;19.88;;;21.00;64.90;;;;;;5194504;28;20157;-78
2020/12/07 01:50:21;;;;;;;24.15;19.25;;;21.10;64.80;;;;;;5188880;28;20691;-79
2020/12/07 01:52:51;;;;;;;23.77;19.52;;;21.10;64.60;;;;;;5190441;28;20033;-77
2020/12/07 01:55:22;;;;;;;25.45;20.65;;;21.10;65.00;;;;;;5205487;28;20041;-78
2020/12/07 01:57:52;;;;;;;23.95;20.35;;;21.10;65.10;;;;;;5206549;28;20033;-79
2020/12/07 02:00:24;;;;;;;30.27;20.58;;;21.20;64.90;;;;;;5205958;28;22286;-79
2020/12/07 02:02:54;;;;;;;24.80;19.52;;;21.10;65.40;;;;;;5187146;28;20480;-80
2020/12/07 02:05:25;;;;;;;23.83;19.65;;;21.00;65.80;;;;;;5188127;28;20037;-78
2020/12/07 02:08:28;;;;;;;25.80;19.30;;;21.10;65.60;;;;;;5185539;28;20037;-78
2020/12/07 02:10:59;;;;;;;23.77;18.58;;;21.10;65.60;;;;;;5126905;28;20046;-78
2020/12/07 02:13:30;;;;;;;24.88;18.75;;;21.20;64.70;;;;;;5205963;28;20409;-78
2020/12/07 02:16:00;;;;;;;29.05;18.52;;;21.20;64.60;;;;;;5205543;28;20048;-78
2020/12/07 02:18:31;;;;;;;23.42;18.63;;;21.20;64.60;;;;;;5204737;28;20773;-77
2020/12/07 02:21:01;;;;;;;23.02;18.40;;;21.10;65.00;;;;;;5205210;28;20078;-78
2020/12/07 02:23:32;;;;;;;22.38;18.13;;;21.10;65.00;;;;;;5204478;28;20392;-78
2020/12/07 02:26:02;;;;;;;22.67;18.05;;;21.20;64.50;;;;;;5204792;28;20038;-78
2020/12/07 02:28:33;;;;;;;23.70;18.67;;;21.20;64.50;;;;;;5186729;28;20080;-78
2020/12/07 02:31:03;;;;;;;20.10;17.38;;;21.20;64.20;;;;;;5183768;28;20034;-78
2020/12/07 02:33:34;;;;;;;24.38;18.55;;;21.20;65.10;;;;;;5204255;28;20029;-78
2020/12/07 02:36:08;;;;;;;25.27;18.23;;;21.20;64.40;;;;;;5206852;28;20021;-78
2020/12/07 02:38:39;;;;;;;28.33;17.77;;;21.20;64.10;;;;;;5188363;28;20056;-78
2020/12/07 02:41:10;;;;;;;20.05;17.40;;;21.00;64.70;;;;;;5205816;28;20519;-78
2020/12/07 02:43:40;;;;;;;23.60;17.35;;;21.00;65.10;;;;;;5204849;28;20025;-78
2020/12/07 02:46:10;;;;;;;21.77;17.15;;;20.90;65.20;;;;;;5184540;28;20555;-78
2020/12/07 02:48:41;;;;;;;22.73;17.17;;;21.00;65.20;;;;;;5186848;28;20036;-78
2020/12/07 02:51:12;;;;;;;21.02;17.23;;;21.00;65.00;;;;;;5189658;28;20443;-78
2020/12/07 02:53:42;;;;;;;20.63;17.48;;;20.90;65.10;;;;;;5206156;28;20047;-80
2020/12/07 02:56:12;;;;;;;20.92;17.33;;;20.90;65.30;;;;;;5189138;28;20022;-78
2020/12/07 02:58:43;;;;;;;19.55;17.15;;;20.90;65.10;;;;;;5204474;28;20048;-78
2020/12/07 03:01:13;;;;;;;21.02;16.95;;;21.00;65.10;;;;;;5203075;28;20519;-78
2020/12/07 03:03:44;;;;;;;20.30;16.58;;;20.90;65.30;;;;;;5203938;28;20029;-77
2020/12/07 03:06:14;;;;;;;21.15;16.77;;;20.90;65.60;;;;;;5204009;28;20488;-78
2020/12/07 03:08:45;;;;;;;20.25;16.17;;;20.90;65.50;;;;;;5206911;28;20029;-79
2020/12/07 03:11:15;;;;;;;19.35;16.15;;;20.90;65.60;;;;;;5207399;28;20029;-79
2020/12/07 03:13:46;;;;;;;19.23;16.58;;;20.90;65.50;;;;;;5205337;28;20045;-78
2020/12/07 03:16:16;;;;;;;24.27;16.45;;;20.90;65.40;;;;;;5203604;28;20506;-78
2020/12/07 03:18:47;;;;;;;22.08;16.20;;;20.90;65.70;;;;;;5203769;28;20060;-78
2020/12/07 03:21:18;;;;;;;22.63;17.02;;;20.90;65.90;;;;;;5204031;28;20460;-78
2020/12/07 03:23:48;;;;;;;21.02;15.85;;;20.80;66.20;;;;;;5203914;28;20499;-80
2020/12/07 03:26:18;;;;;;;21.55;16.17;;;20.90;66.10;;;;;;5189208;28;20496;-79
2020/12/07 03:28:49;;;;;;;18.75;15.23;;;21.00;65.70;;;;;;5188241;28;20033;-79
2020/12/07 03:31:20;;;;;;;18.77;14.60;;;21.00;65.70;;;;;;5205588;28;20423;-79
2020/12/07 03:33:50;;;;;;;22.80;16.83;;;21.00;65.60;;;;;;5204428;28;20045;-78
2020/12/07 03:36:21;;;;;;;26.30;16.20;;;21.00;66.00;;;;;;5205969;28;20372;-79
2020/12/07 03:38:51;;;;;;;23.90;15.27;;;21.10;65.10;;;;;;5186476;28;20030;-80
2020/12/07 03:41:22;;;;;;;33.25;15.90;;;21.10;65.10;;;;;;5204442;28;20033;-79
2020/12/07 03:43:52;;;;;;;21.70;15.52;;;21.20;65.30;;;;;;5203486;28;20550;-78
2020/12/07 03:46:23;;;;;;;22.45;15.43;;;21.20;64.90;;;;;;5203401;28;20041;-78
2020/12/07 03:48:54;;;;;;;20.70;15.43;;;21.10;65.60;;;;;;5186997;28;20412;-78
2020/12/07 03:51:24;;;;;;;23.02;14.80;;;21.00;65.80;;;;;;5202961;28;20018;-78
2020/12/07 03:53:54;;;;;;;19.55;15.23;;;20.90;65.90;;;;;;5202425;28;20095;-78
2020/12/07 03:56:25;;;;;;;20.23;14.88;;;21.00;66.00;;;;;;5203787;28;20030;-79
2020/12/07 03:58:55;;;;;;;18.08;14.70;;;20.90;66.10;;;;;;5182859;28;20511;-79
2020/12/07 04:01:26;;;;;;;16.80;14.38;;;21.00;66.00;;;;;;5194678;28;20032;-79
2020/12/07 04:04:01;;;;;;;18.92;15.25;;;21.00;65.90;;;;;;5199202;28;20516;-79
2020/12/07 04:06:36;;;;;;;;;;;21.00;65.90;;;;;;5185857;28;20494;-79
2020/12/07 04:09:07;;;;;;;17.73;14.27;;;20.90;65.90;;;;;;5189969;28;19916;-78
2020/12/07 04:11:38;;;;;;;17.50;14.32;;;20.90;65.90;;;;;;5205996;28;20075;-79
2020/12/07 04:14:08;;;;;;;18.52;15.00;;;20.90;65.90;;;;;;5198282;28;20452;-78
2020/12/07 04:16:39;;;;;;;16.00;13.43;;;20.90;66.00;;;;;;5168072;28;20049;-80
2020/12/07 04:19:09;;;;;;;23.60;14.43;;;20.90;65.80;;;;;;5185860;28;20030;-79
2020/12/07 04:21:39;;;;;;;17.50;13.93;;;20.90;66.30;;;;;;5169124;28;20022;-81
2020/12/07 04:24:10;;;;;;;16.08;14.07;;;20.90;65.90;;;;;;5190958;28;20028;-80
2020/12/07 04:26:40;;;;;;;15.45;13.85;;;20.90;65.80;;;;;;5186725;28;20022;-78
2020/12/07 04:29:11;;;;;;;17.80;14.52;;;21.00;65.50;;;;;;5196546;28;20026;-79
2020/12/07 04:31:41;;;;;;;17.90;13.73;;;21.10;65.20;;;;;;5169339;28;20037;-80
2020/12/07 04:34:12;;;;;;;16.63;14.30;;;21.20;64.90;;;;;;5187987;28;20022;-78
2020/12/07 04:36:42;;;;;;;16.15;13.05;;;21.10;64.90;;;;;;5188340;28;20018;-80
2020/12/07 04:39:13;;;;;;;15.35;13.73;;;21.10;64.80;;;;;;5187752;28;20446;-80
2020/12/07 04:41:44;;;;;;;18.50;13.52;;;21.00;65.10;;;;;;5186957;28;20026;-78
2020/12/07 04:44:15;;;;;;;17.42;13.57;;;21.10;64.80;;;;;;5186330;28;20045;-79
2020/12/07 04:46:46;;;;;;;18.30;13.30;;;21.10;64.80;;;;;;5166737;28;20034;-79
2020/12/07 04:49:16;;;;;;;15.55;13.68;;;21.00;64.90;;;;;;5134363;28;20031;-78
2020/12/07 04:51:48;;;;;;;17.15;13.85;;;21.10;64.90;;;;;;5185693;28;20503;-79
2020/12/07 04:54:19;;;;;;;14.35;12.70;;;21.10;65.10;;;;;;5183489;28;20044;-79
2020/12/07 04:56:49;;;;;;;17.38;13.48;;;21.10;65.10;;;;;;5186148;28;20041;-78
2020/12/07 04:59:20;;;;;;;16.95;12.63;;;21.10;64.80;;;;;;5186824;28;20472;-79
2020/12/07 05:01:51;;;;;;;16.02;12.68;;;21.10;65.10;;;;;;5201862;28;20041;-78
2020/12/07 05:04:21;;;;;;;18.75;12.65;;;21.10;65.70;;;;;;5200275;28;20033;-79
2020/12/07 05:07:06;;;;;;;15.60;12.88;;;21.00;65.10;;;;;;5188036;28;20026;-79
2020/12/07 05:09:38;;;;;;;16.23;13.07;;;21.00;65.10;;;;;;5186829;28;20061;-79
2020/12/07 05:12:16;;;;;;;17.35;12.88;;;21.00;65.10;;;;;;5171771;28;20660;-79
2020/12/07 05:14:47;;;;;;;15.40;13.43;;;21.00;64.90;;;;;;5189204;28;20034;-79
2020/12/07 05:17:18;;;;;;;20.98;12.95;;;21.00;65.10;;;;;;5172024;28;20037;-80
2020/12/07 05:19:49;;;;;;;14.80;12.07;;;21.00;65.20;;;;;;5171849;28;20475;-80
2020/12/07 05:22:19;;;;;;;14.85;13.00;;;20.90;65.10;;;;;;5188389;28;20112;-79
2020/12/07 05:24:50;;;;;;;13.95;12.45;;;21.00;65.00;;;;;;5171378;28;20129;-80
2020/12/07 05:27:20;;;;;;;14.60;12.68;;;20.90;65.00;;;;;;5172215;28;20026;-79
2020/12/07 05:30:07;;;;;;;14.73;12.68;;;21.00;64.70;;;;;;5188321;28;20056;-80
2020/12/07 05:32:38;;;;;;;13.75;11.73;;;21.00;65.40;;;;;;5173176;28;20042;-79
2020/12/07 05:35:08;;;;;;;14.57;11.65;;;21.00;65.10;;;;;;5201351;28;20041;-79
2020/12/07 05:37:39;;;;;;;13.50;12.02;;;21.00;65.10;;;;;;5189937;28;20033;-80
2020/12/07 05:40:11;;;;;;;12.93;11.63;;;21.00;65.20;;;;;;5189432;28;20529;-78
2020/12/07 05:42:42;;;;;;;13.30;11.90;;;21.00;65.10;;;;;;5190332;28;20030;-78
2020/12/07 05:45:12;;;;;;;13.40;11.68;;;21.00;65.00;;;;;;5189836;28;20031;-78
2020/12/07 05:47:43;;;;;;;19.70;12.00;;;21.10;65.20;;;;;;5207570;28;20109;-77
2020/12/07 05:50:13;;;;;;;15.57;11.88;;;21.00;66.00;;;;;;5188839;28;20044;-77
2020/12/07 05:52:47;;;;;;;15.95;11.98;;;21.10;65.40;;;;;;5205311;28;20034;-78
2020/12/07 05:55:19;;;;;;;13.50;11.68;;;21.20;64.60;;;;;;5204935;28;20546;-78
2020/12/07 05:58:06;;;;;;;20.23;11.70;;;21.40;64.30;;;;;;5205513;28;20044;-78
2020/12/07 06:00:37;;;;;;;14.80;10.52;;;21.40;63.90;;;;;;5187655;28;20451;-79
2020/12/07 06:03:07;;;;;;;14.63;10.93;;;21.30;64.10;;;;;;5205001;28;20156;-78
2020/12/07 06:05:38;;;;;;;13.50;11.65;;;21.10;64.90;;;;;;5204964;28;20049;-78
2020/12/07 06:08:21;;;;;;;19.80;11.07;;;21.00;64.50;;;;;;5204922;28;20033;-79
2020/12/07 06:11:05;;;;;;;14.93;11.70;;;21.10;64.40;;;;;;5189163;28;20041;-78
2020/12/07 06:13:36;;;;;;;21.05;11.77;;;21.00;64.50;;;;;;5188879;28;20034;-78
2020/12/07 06:16:07;;;;;;;14.60;11.05;;;21.10;64.20;;;;;;5188377;28;20030;-77
2020/12/07 06:18:44;;;;;;;19.05;11.48;;;21.00;64.60;;;;;;5188223;28;20037;-78
2020/12/07 06:21:18;;;;;;;12.50;10.82;;;21.00;64.80;;;;;;5204702;28;20052;-78
2020/12/07 06:23:48;;;;;;;17.35;10.85;;;20.90;64.90;;;;;;5187183;28;20037;-78
2020/12/07 06:26:19;;;;;;;30.13;11.57;;;20.80;65.20;;;;;;5205573;28;20022;-79
2020/12/07 06:28:50;;;;;;;15.52;10.38;;;20.80;65.20;;;;;;5201999;28;20030;-78
2020/12/07 06:31:20;;;;;;;13.10;10.40;;;20.80;65.30;;;;;;5195370;28;20029;-78
2020/12/07 06:33:52;;;;;;;12.85;10.57;;;20.70;65.30;;;;;;5202369;28;20108;-78
2020/12/07 06:36:26;;;;;;;16.15;10.07;;;20.70;65.30;;;;;;5185006;28;20037;-78
2020/12/07 06:38:57;;;;;;;12.70;10.23;;;20.90;65.20;;;;;;5167607;28;20739;-75
2020/12/07 06:41:38;;;;;;;11.90;10.55;;;20.90;64.90;;;;;;5184410;28;20030;-78
2020/12/07 06:44:11;;;;;;;16.45;10.48;;;20.90;64.90;;;;;;5183862;28;20044;-77
2020/12/07 06:46:49;;;;;;;12.43;10.13;;;20.80;65.00;;;;;;5197267;28;20042;-78
2020/12/07 06:49:25;;;;;;;11.60;10.20;;;20.70;64.90;;;;;;5198253;28;20087;-78
2020/12/07 06:52:02;;;;;;;15.48;10.40;;;20.70;65.00;;;;;;5184037;28;20484;-78
2020/12/07 06:55:11;;;;;;;11.52;9.98;;;20.70;65.10;;;;;;5183751;28;20048;-78
2020/12/07 06:57:48;;;;;;;10.77;9.60;;;20.70;65.00;;;;;;5149739;28;20029;-77
2020/12/07 07:00:20;;;;;;;12.10;9.88;;;20.70;64.90;;;;;;5182812;28;20180;-77
2020/12/07 07:02:52;;;;;;;12.15;10.23;;;20.70;64.90;;;;;;5200836;28;20027;-77
2020/12/07 07:05:24;;;;;;;11.35;10.15;;;20.70;64.90;;;;;;5203993;28;20041;-77
2020/12/07 07:07:55;;;;;;;11.50;9.98;;;20.60;64.80;;;;;;5188218;28;20025;-77
2020/12/07 07:10:25;;;;;;;11.00;9.85;;;20.60;64.80;;;;;;5187657;28;20044;-78
2020/12/07 07:12:56;;;;;;;13.75;10.88;;;20.70;64.80;;;;;;5204082;28;20033;-78
2020/12/07 07:15:26;;;;;;;10.80;9.52;;;20.70;64.80;;;;;;5186820;28;20036;-77
2020/12/07 07:17:57;;;;;;;11.88;9.82;;;20.70;64.60;;;;;;5203450;28;20021;-77
2020/12/07 07:20:27;;;;;;;15.65;9.55;;;20.60;64.50;;;;;;5202716;28;20041;-78
2020/12/07 07:22:59;;;;;;;13.20;9.30;;;20.80;64.00;;;;;;5203213;28;20553;-77
2020/12/07 07:25:47;;;;;;;11.52;9.85;;;20.70;64.40;;;;;;5204108;28;20029;-80
2020/12/07 07:28:18;;;;;;;11.02;9.35;;;20.70;64.40;;;;;;5207237;28;20026;-79
2020/12/07 07:30:49;;;;;;;11.55;9.50;;;20.70;64.60;;;;;;5194969;28;20041;-79
2020/12/07 07:33:19;;;;;;;12.05;8.93;;;20.60;64.50;;;;;;5190522;28;20025;-78
2020/12/07 07:35:50;;;;;;;10.10;9.10;;;20.60;64.40;;;;;;5192321;28;20029;-79
2020/12/07 07:38:30;;;;;;;12.30;9.52;;;20.60;64.50;;;;;;5191546;28;20044;-79
2020/12/07 07:41:01;;;;;;;11.40;9.65;;;20.60;64.40;;;;;;5183550;28;20037;-78
2020/12/07 07:43:31;;;;;;;12.27;9.70;;;20.50;64.30;;;;;;5205862;28;20446;-79
2020/12/07 07:46:02;;;;;;;11.23;9.20;;;20.60;64.20;;;;;;5193801;28;20021;-80
2020/12/07 07:48:41;;;;;;;10.93;9.30;;;20.60;64.30;;;;;;5204338;28;20033;-78
2020/12/07 07:57:32;;;;;;;11.20;9.25;;;20.60;64.10;;;;;;5184885;28;20504;-79
2020/12/07 08:11:47;;;;;;;9.80;8.77;;;20.50;63.80;;;;;;5186007;28;20049;-81
2020/12/07 08:16:41;;;;;;;9.95;8.57;;;20.50;63.90;;;;;;5173915;28;20911;-80
2020/12/07 08:19:22;;;;;;;12.10;9.18;;;20.50;64.00;;;;;;5181968;28;20033;-79
2020/12/07 08:21:53;;;;;;;9.40;8.40;;;20.50;63.70;;;;;;5190910;28;20113;-79
2020/12/07 08:24:23;;;;;;;9.82;8.82;;;20.50;63.80;;;;;;5198416;28;20026;-80
2020/12/07 08:26:54;;;;;;;10.52;9.00;;;20.50;63.80;;;;;;5188624;28;20049;-80
2020/12/07 08:29:24;;;;;;;10.68;8.65;;;20.50;63.70;;;;;;5186801;28;20037;-78
2020/12/07 08:31:55;;;;;;;9.05;8.07;;;20.50;63.80;;;;;;5188103;28;20038;-79
2020/12/07 08:34:29;;;;;;;10.13;8.60;;;20.50;63.80;;;;;;5170817;28;20058;-79
2020/12/07 08:37:00;;;;;;;9.90;8.67;;;20.70;63.40;;;;;;5189119;28;20029;-79
2020/12/07 08:39:30;;;;;;;9.98;8.80;;;20.80;62.60;;;;;;5155928;28;20034;-79
2020/12/07 08:42:01;;;;;;;11.10;9.05;;;20.80;62.00;;;;;;5173797;28;20084;-77
2020/12/07 08:44:31;;;;;;;10.90;8.77;;;20.80;61.70;;;;;;5190308;28;20030;-78
2020/12/07 08:47:02;;;;;;;15.07;9.25;;;20.70;62.10;;;;;;5206720;28;20057;-80
2020/12/07 08:49:32;;;;;;;11.25;9.80;;;20.80;62.60;;;;;;5184412;28;20034;-78
2020/12/07 08:52:03;;;;;;;13.45;9.65;;;20.70;61.60;;;;;;5168352;28;20030;-78
2020/12/07 08:54:34;;;;;;;11.43;9.65;;;20.60;61.40;;;;;;5185924;28;20447;-79
2020/12/07 08:57:04;;;;;;;13.00;9.75;;;20.50;61.60;;;;;;5186616;28;20034;-78
2020/12/07 08:59:34;;;;;;;12.75;9.57;;;20.50;61.40;;;;;;5194772;28;20053;-77
2020/12/07 09:02:05;;;;;;;12.07;8.90;;;20.50;61.40;;;;;;5206998;28;20033;-78
2020/12/07 09:04:36;;;;;;;11.43;8.75;;;20.50;61.40;;;;;;5208135;28;20025;-77
2020/12/07 09:07:06;;;;;;;9.48;8.02;;;20.50;61.30;;;;;;5206695;28;20044;-77
2020/12/07 09:09:37;;;;;;;11.65;8.43;;;20.50;61.40;;;;;;5206529;28;20755;-77
2020/12/07 09:12:07;;;;;;;13.07;8.88;;;20.60;61.30;;;;;;5207070;28;20029;-78
2020/12/07 09:14:38;;;;;;;17.25;8.65;;;20.70;61.30;;;;;;5206362;28;20072;-74
2020/12/07 09:17:08;;;;;;;15.35;8.40;;;20.90;61.10;;;;;;5206588;28;20132;-78
2020/12/07 09:19:41;;;;;;;17.40;8.98;;;21.00;61.30;;;;;;5206170;28;20042;-78
2020/12/07 09:22:11;;;;;;;15.60;8.60;;;21.30;61.00;;;;;;5206415;28;20022;-78
2020/12/07 09:24:42;;;;;;;15.05;8.50;;;21.40;60.40;;;;;;5189367;28;20033;-78
2020/12/07 09:27:12;;;;;;;13.85;8.23;;;21.40;60.30;;;;;;5190302;28;20060;-80
2020/12/07 09:29:43;;;;;;;14.50;8.52;;;21.50;59.80;;;;;;5189860;28;20500;-77
2020/12/07 09:32:13;;;;;;;13.73;8.23;;;21.50;59.90;;;;;;5181505;28;20036;-78
2020/12/07 09:34:44;;;;;;;13.77;8.25;;;21.60;59.80;;;;;;5185406;28;20504;-78
2020/12/07 09:37:14;;;;;;;21.65;8.60;;;21.60;59.80;;;;;;5178019;28;20026;-81
2020/12/07 09:39:45;;;;;;;18.67;8.70;;;21.70;59.40;;;;;;5188332;28;20038;-80
2020/12/07 09:42:15;;;;;;;20.75;8.23;;;21.70;59.80;;;;;;5186825;28;20060;-80
2020/12/07 09:44:46;;;;;;;18.13;8.73;;;21.80;59.50;;;;;;5170199;28;20097;-80
2020/12/07 09:47:16;;;;;;;13.35;8.25;;;21.80;59.50;;;;;;5166522;28;20053;-81
2020/12/07 09:49:47;;;;;;;13.40;8.60;;;21.90;59.50;;;;;;5170128;28;20113;-78
2020/12/07 09:52:17;;;;;;;13.43;8.25;;;21.90;59.80;;;;;;5169387;28;20744;-80
2020/12/07 09:54:48;;;;;;;12.23;7.97;;;21.90;59.60;;;;;;5179678;28;20029;-80
2020/12/07 09:57:18;;;;;;;17.50;8.32;;;22.00;59.30;;;;;;5170745;28;20026;-78
2020/12/07 09:59:50;;;;;;;19.10;8.55;;;21.90;59.00;;;;;;5192135;28;20420;-80
2020/12/07 10:02:20;;;;;;;11.63;7.93;;;21.70;59.50;;;;;;5166160;28;20033;-80
2020/12/07 10:04:51;;;;;;;14.60;7.85;;;21.80;59.50;;;;;;5168290;28;20030;-80
2020/12/07 10:07:21;;;;;;;10.52;8.50;;;21.90;59.30;;;;;;5175470;28;20018;-80
2020/12/07 10:09:52;;;;;;;10.70;8.07;;;22.00;59.10;;;;;;5147336;28;20497;-80
2020/12/07 10:12:22;;;;;;;13.27;8.05;;;22.10;58.70;;;;;;5164587;28;20022;-79
2020/12/07 10:14:55;;;;;;;21.63;8.05;;;22.20;58.80;;;;;;5181092;28;20042;-80
2020/12/07 10:17:25;;;;;;;17.00;8.00;;;22.20;58.90;;;;;;5173476;28;20042;-79
2020/12/07 10:19:56;;;;;;;14.13;8.45;;;22.20;58.80;;;;;;5165835;28;20048;-79
2020/12/07 10:22:26;;;;;;;12.90;7.75;;;22.30;58.80;;;;;;5179793;28;20030;-80
2020/12/07 10:24:56;;;;;;;11.30;7.97;;;22.30;58.70;;;;;;5177168;28;20034;-80
2020/12/07 10:27:27;;;;;;;16.60;8.43;;;22.30;58.70;;;;;;5165658;28;20030;-80
2020/12/07 10:29:57;;;;;;;11.18;7.88;;;22.30;58.70;;;;;;5181606;28;20034;-78
2020/12/07 10:32:28;;;;;;;13.52;8.27;;;22.30;58.70;;;;;;5178566;28;20026;-78
2020/12/07 10:34:58;;;;;;;13.30;8.05;;;22.00;58.30;;;;;;5177519;28;20073;-76
2020/12/07 10:37:29;;;;;;;11.13;7.95;;;21.70;59.00;;;;;;5180379;28;20033;-76
2020/12/07 10:39:59;;;;;;;13.70;7.85;;;21.40;59.00;;;;;;5162597;28;20080;-77
2020/12/07 10:42:30;;;;;;;12.60;7.55;;;21.30;59.20;;;;;;5173335;28;20025;-76
2020/12/07 10:45:00;;;;;;;10.85;7.82;;;21.20;59.60;;;;;;5194020;28;20124;-75
2020/12/07 10:47:31;;;;;;;11.98;7.60;;;21.20;59.60;;;;;;5202924;28;20033;-75
2020/12/07 10:50:01;;;;;;;10.52;7.57;;;21.20;59.50;;;;;;5190074;28;20037;-76
2020/12/07 10:52:32;;;;;;;10.70;7.47;;;21.20;59.50;;;;;;5164641;28;20033;-75
2020/12/07 10:55:03;;;;;;;8.32;7.28;;;21.10;59.40;;;;;;5190412;28;20034;-76
2020/12/07 10:57:33;;;;;;;9.60;8.10;;;21.10;59.50;;;;;;5187800;28;20519;-75
2020/12/07 11:00:05;;;;;;;9.10;7.35;;;21.10;59.50;;;;;;5184752;28;20030;-76
2020/12/07 11:02:35;;;;;;;9.88;7.60;;;21.10;59.30;;;;;;5163837;28;20080;-77
2020/12/07 11:05:06;;;;;;;8.88;7.60;;;21.10;59.30;;;;;;5196864;28;20439;-76
2020/12/07 11:07:36;;;;;;;9.18;7.38;;;21.10;59.10;;;;;;5183145;28;20104;-77
2020/12/07 11:10:07;;;;;;;13.00;7.60;;;21.10;59.30;;;;;;5171128;28;20392;-77
2020/12/07 11:12:40;;;;;;;9.55;7.75;;;21.10;59.60;;;;;;5179646;28;20499;-76
2020/12/07 11:15:11;;;;;;;9.82;8.00;;;21.30;58.70;;;;;;5176448;28;20049;-76
2020/12/07 11:17:41;;;;;;;11.82;7.30;;;21.20;58.80;;;;;;5194268;28;20033;-78
2020/12/07 11:20:12;;;;;;;10.77;7.95;;;21.20;58.90;;;;;;5165257;28;20058;-79
2020/12/07 11:22:42;;;;;;;9.40;7.63;;;21.40;59.10;;;;;;5165575;28;20026;-80
2020/12/07 11:25:13;;;;;;;8.48;7.50;;;21.70;58.10;;;;;;5182600;28;20026;-80
2020/12/07 11:27:43;;;;;;;8.93;7.80;;;21.90;57.70;;;;;;5185848;28;20096;-78
2020/12/07 11:30:14;;;;;;;11.90;8.00;;;22.00;57.40;;;;;;5184068;28;20084;-79
2020/12/07 11:32:44;;;;;;;12.40;7.85;;;22.10;57.10;;;;;;5172204;28;20029;-78
2020/12/07 11:35:15;;;;;;;8.38;7.47;;;22.10;56.90;;;;;;5172746;28;20049;-80
2020/12/07 11:37:50;;;;;;;10.82;7.97;;;22.20;56.90;;;;;;5167030;28;20030;-80
2020/12/07 11:40:46;;;;;;;;;;;22.20;56.70;;;;;;5172046;28;20030;-80
2020/12/07 11:43:21;;;;;;;11.70;7.50;;;22.30;56.70;;;;;;5178865;28;19910;-77
2020/12/07 11:45:52;;;;;;;9.70;7.77;;;22.30;56.40;;;;;;5163690;28;20124;-79
2020/12/07 11:48:22;;;;;;;10.68;7.93;;;22.30;56.40;;;;;;5172120;28;20349;-77
2020/12/07 11:50:53;;;;;;;9.80;7.65;;;22.40;56.40;;;;;;5179288;28;20033;-77
2020/12/07 11:53:23;;;;;;;9.25;7.55;;;22.40;56.40;;;;;;5182451;28;20045;-78
2020/12/07 11:55:54;;;;;;;9.77;7.65;;;22.30;56.40;;;;;;5184413;28;20040;-79
2020/12/07 11:58:24;;;;;;;8.63;7.70;;;22.40;56.20;;;;;;5171982;28;20370;-79
2020/12/07 12:00:55;;;;;;;9.20;7.80;;;22.40;56.90;;;;;;5171784;28;20088;-80
2020/12/07 12:03:26;;;;;;;9.80;7.88;;;22.50;56.20;;;;;;5203288;28;20041;-79
2020/12/07 12:05:56;;;;;;;9.43;8.00;;;22.50;56.10;;;;;;5166521;28;20028;-78
2020/12/07 12:08:27;;;;;;;8.57;7.68;;;22.50;56.00;;;;;;5185197;28;20029;-79
2020/12/07 12:10:58;;;;;;;10.27;7.57;;;22.50;55.80;;;;;;5183823;28;20022;-78
2020/12/07 12:13:28;;;;;;;9.05;7.60;;;22.60;55.70;;;;;;5182896;28;20040;-78
2020/12/07 12:15:59;;;;;;;8.18;7.38;;;22.50;55.70;;;;;;5202255;28;20499;-78
2020/12/07 12:18:30;;;;;;;9.07;7.65;;;22.50;55.80;;;;;;5185827;28;20079;-78
2020/12/07 12:21:00;;;;;;;9.00;7.45;;;22.50;55.70;;;;;;5193194;28;20480;-78
2020/12/07 12:23:31;;;;;;;10.27;7.47;;;22.50;55.80;;;;;;5209527;28;20029;-79
2020/12/07 12:26:01;;;;;;;9.55;7.28;;;22.50;55.70;;;;;;5186895;28;20643;-79
2020/12/07 12:28:32;;;;;;;10.30;7.80;;;22.50;55.70;;;;;;5204596;28;20033;-79
2020/12/07 12:31:03;;;;;;;9.70;7.82;;;22.20;55.70;;;;;;5178526;28;20069;-78
2020/12/07 12:33:33;;;;;;;10.07;8.10;;;21.90;56.20;;;;;;5172797;28;20014;-77
2020/12/07 12:36:04;;;;;;;17.15;9.13;;;21.80;57.10;;;;;;5203875;28;20025;-77
2020/12/07 12:38:34;;;;;;;12.10;7.70;;;22.00;56.70;;;;;;5214100;28;20061;-76
2020/12/07 12:41:06;;;;;;;10.55;7.38;;;22.30;56.10;;;;;;5175618;28;20034;-78
2020/12/07 12:43:37;;;;;;;15.60;8.13;;;22.40;55.80;;;;;;5176496;28;20026;-77
2020/12/07 12:46:07;;;;;;;14.43;8.05;;;22.50;55.60;;;;;;5160134;28;20092;-79
2020/12/07 12:48:38;;;;;;;9.85;8.07;;;22.60;55.60;;;;;;5168394;28;20038;-78
2020/12/07 12:51:08;;;;;;;15.43;8.13;;;22.60;55.50;;;;;;5184243;28;20141;-79
2020/12/07 12:53:39;;;;;;;10.70;7.45;;;22.70;55.90;;;;;;5169750;28;20033;-77
2020/12/07 12:56:10;;;;;;;14.25;7.40;;;22.70;55.70;;;;;;5180135;28;20029;-79
2020/12/07 12:58:41;;;;;;;13.05;7.65;;;22.80;55.90;;;;;;5141841;28;20173;-79
2020/12/07 13:01:11;;;;;;;11.52;7.88;;;22.80;55.80;;;;;;5153611;28;20729;-80
2020/12/07 13:03:42;;;;;;;16.38;8.02;;;22.80;55.80;;;;;;5170560;28;20404;-75
2020/12/07 13:06:13;;;;;;;14.95;7.57;;;22.80;55.80;;;;;;5167790;28;20492;-78
2020/12/07 13:08:43;;;;;;;12.00;7.72;;;22.80;56.20;;;;;;5181818;28;20515;-80
2020/12/07 13:11:14;;;;;;;26.60;7.72;;;22.70;56.50;;;;;;5182413;28;20109;-78
2020/12/07 13:13:44;;;;;;;23.67;8.43;;;22.80;56.60;;;;;;5167122;28;20025;-79
2020/12/07 13:16:17;;;;;;;27.40;7.90;;;22.60;56.90;;;;;;5183130;28;20030;-78